Time;durP1;ratioP1;P1;durP2;ratioP2;P2;SDS_P1;SDS_P2;PMS_P1;PMS_P2;Temp;Humidity;BMP_temperature;BMP_pressure;BME280_temperature;BME280_humidity;BME280_pressure;Samples;Min_cycle;Max_cycle;Signal;HPM_P1;HPM_P2
2021/03/04 00:00:37;;;;;;;39.30;18.80;;;4.10;99.90;;;;;;5034512;28;20049;-70
2021/03/04 00:03:04;;;;;;;36.40;18.13;;;4.00;99.90;;;;;;5052114;28;20033;-70
2021/03/04 00:05:30;;;;;;;36.70;17.25;;;4.10;99.90;;;;;;5034249;28;20389;-69
2021/03/04 00:07:56;;;;;;;35.78;16.95;;;4.10;99.90;;;;;;5052195;28;20033;-69
2021/03/04 00:10:22;;;;;;;36.88;17.55;;;4.10;99.90;;;;;;5033425;28;20399;-70
2021/03/04 00:12:49;;;;;;;37.40;16.88;;;4.10;99.90;;;;;;5033679;28;20025;-70
2021/03/04 00:15:17;;;;;;;36.60;16.77;;;4.00;99.90;;;;;;5033924;28;20056;-69
2021/03/04 00:17:46;;;;;;;34.65;17.23;;;4.00;99.90;;;;;;5051773;28;20029;-69
2021/03/04 00:20:17;;;;;;;38.42;17.50;;;4.00;99.90;;;;;;5051816;28;20028;-69
2021/03/04 00:22:43;;;;;;;35.83;16.42;;;3.90;99.90;;;;;;5051490;28;20056;-70
2021/03/04 00:25:10;;;;;;;37.70;16.58;;;3.90;99.90;;;;;;5051467;28;20071;-70
2021/03/04 00:27:36;;;;;;;36.85;18.08;;;3.90;99.90;;;;;;5033754;28;20021;-70
2021/03/04 00:30:02;;;;;;;38.75;17.77;;;4.00;99.90;;;;;;5051442;28;20032;-70
2021/03/04 00:32:28;;;;;;;36.30;17.05;;;4.00;99.90;;;;;;5051096;28;20037;-70
2021/03/04 00:34:53;;;;;;;38.30;17.48;;;4.00;99.90;;;;;;5033420;28;20507;-70
2021/03/04 00:37:19;;;;;;;33.03;16.48;;;4.00;99.90;;;;;;5051342;28;20505;-70
2021/03/04 00:39:45;;;;;;;35.30;16.58;;;4.00;99.90;;;;;;5051721;28;20460;-69
2021/03/04 00:42:10;;;;;;;40.55;17.83;;;3.80;99.90;;;;;;5033012;28;20082;-69
2021/03/04 00:44:37;;;;;;;35.88;16.92;;;3.90;99.90;;;;;;5033380;28;20301;-70
2021/03/04 00:47:03;;;;;;;34.88;17.00;;;3.90;99.90;;;;;;5051223;28;20108;-70
2021/03/04 00:49:29;;;;;;;38.00;17.15;;;3.80;99.90;;;;;;5051037;28;20040;-69
2021/03/04 00:51:54;;;;;;;39.22;18.17;;;3.80;99.90;;;;;;5050763;28;20029;-70
2021/03/04 00:54:20;;;;;;;34.00;16.90;;;3.80;99.90;;;;;;5032981;28;20021;-70
2021/03/04 00:56:45;;;;;;;35.65;16.25;;;3.80;99.90;;;;;;5050934;28;20104;-69
2021/03/04 00:59:11;;;;;;;35.45;17.02;;;3.80;99.90;;;;;;5033104;28;20131;-69
2021/03/04 01:01:36;;;;;;;39.25;16.95;;;3.80;99.90;;;;;;5051080;28;20452;-70
2021/03/04 01:04:02;;;;;;;34.83;17.88;;;3.70;99.90;;;;;;5050735;28;20567;-69
2021/03/04 01:06:27;;;;;;;37.63;15.82;;;3.70;99.90;;;;;;5032942;28;20448;-69
2021/03/04 01:08:53;;;;;;;40.40;16.63;;;3.80;99.90;;;;;;5050853;28;20029;-69
2021/03/04 01:11:18;;;;;;;34.17;16.40;;;3.90;99.90;;;;;;5051051;28;20483;-70
2021/03/04 01:13:44;;;;;;;32.08;16.25;;;4.00;99.90;;;;;;5032765;28;20052;-69
2021/03/04 01:16:10;;;;;;;32.67;16.48;;;4.00;99.90;;;;;;5050689;28;20119;-70
2021/03/04 01:18:36;;;;;;;38.60;18.10;;;4.00;99.90;;;;;;5032897;28;20032;-70
2021/03/04 01:21:06;;;;;;;35.40;16.02;;;4.00;99.90;;;;;;5050696;28;20017;-70
2021/03/04 01:23:31;;;;;;;36.20;16.52;;;4.10;99.90;;;;;;5050085;28;20028;-69
2021/03/04 01:25:58;;;;;;;33.90;16.30;;;4.20;99.90;;;;;;5050671;28;20033;-70
2021/03/04 01:28:24;;;;;;;33.63;16.33;;;4.10;99.90;;;;;;5050612;28;20028;-69
2021/03/04 01:30:50;;;;;;;38.20;16.35;;;4.20;99.90;;;;;;5032766;28;20431;-69
2021/03/04 01:33:16;;;;;;;37.47;17.08;;;4.20;99.90;;;;;;5050495;28;20498;-70
2021/03/04 01:35:41;;;;;;;34.55;17.05;;;4.10;99.90;;;;;;5032830;28;20028;-69
2021/03/04 01:38:07;;;;;;;37.67;16.17;;;4.10;99.90;;;;;;5050496;28;20017;-70
2021/03/04 01:40:33;;;;;;;33.75;16.77;;;4.20;99.90;;;;;;5050930;28;20154;-68
2021/03/04 01:42:58;;;;;;;36.75;17.58;;;4.20;99.90;;;;;;5032337;28;20135;-69
2021/03/04 01:45:24;;;;;;;32.60;16.13;;;4.20;99.90;;;;;;5050435;28;20029;-69
2021/03/04 01:47:54;;;;;;;35.78;17.15;;;4.20;99.90;;;;;;5050440;28;20047;-70
2021/03/04 01:50:25;;;;;;;37.92;16.80;;;4.30;99.90;;;;;;5032643;28;20029;-70
2021/03/04 01:52:51;;;;;;;29.95;16.60;;;4.50;99.90;;;;;;5050024;28;20061;-70
2021/03/04 01:55:18;;;;;;;37.47;16.33;;;4.50;99.90;;;;;;5050403;28;20064;-69
2021/03/04 01:57:45;;;;;;;36.78;16.40;;;4.50;99.90;;;;;;5050321;28;20017;-69
2021/03/04 02:00:13;;;;;;;34.72;16.65;;;4.40;99.90;;;;;;5050699;28;20028;-70
2021/03/04 02:02:38;;;;;;;34.65;16.92;;;4.40;99.90;;;;;;5050112;28;20436;-70
2021/03/04 02:05:15;;;;;;;34.58;16.75;;;4.50;99.90;;;;;;5050103;28;20071;-69
2021/03/04 02:08:05;;;;;;;34.40;17.88;;;4.50;99.90;;;;;;5050321;28;20106;-70
2021/03/04 02:11:04;;;;;;;34.03;16.60;;;4.50;99.90;;;;;;5050255;28;20383;-69
2021/03/04 02:13:42;;;;;;;33.05;16.23;;;4.50;99.90;;;;;;5031964;28;20025;-69
2021/03/04 02:16:12;;;;;;;34.80;16.42;;;4.60;99.90;;;;;;5032332;28;20403;-69
2021/03/04 02:18:45;;;;;;;34.90;17.00;;;4.60;99.90;;;;;;5050309;28;20021;-70
2021/03/04 02:22:00;;;;;;;32.15;16.52;;;4.50;99.90;;;;;;5050165;28;20056;-70
2021/03/04 02:24:46;;;;;;;34.53;16.10;;;4.70;99.90;;;;;;5039208;28;20284;-70
2021/03/04 02:27:17;;;;;;;33.00;16.17;;;4.80;99.90;;;;;;5032142;28;20494;-70
2021/03/04 02:29:50;;;;;;;38.03;16.02;;;4.80;99.90;;;;;;5050095;28;20039;-70
2021/03/04 02:32:20;;;;;;;31.98;16.90;;;4.70;99.90;;;;;;5049734;28;20083;-69
2021/03/04 02:34:49;;;;;;;33.80;15.95;;;4.70;99.90;;;;;;5034132;28;20025;-70
2021/03/04 02:37:18;;;;;;;35.50;16.58;;;4.70;99.90;;;;;;5053819;28;20463;-70
2021/03/04 02:39:47;;;;;;;39.15;16.80;;;4.70;99.90;;;;;;5053569;28;20021;-70
2021/03/04 02:42:22;;;;;;;34.03;17.33;;;4.70;99.90;;;;;;5053127;28;20589;-70
2021/03/04 02:44:50;;;;;;;36.75;16.08;;;4.70;99.90;;;;;;5053408;28;20483;-69
2021/03/04 02:47:17;;;;;;;32.03;16.70;;;4.70;99.90;;;;;;5053361;28;20025;-69
2021/03/04 02:49:44;;;;;;;34.30;16.98;;;4.60;99.90;;;;;;5053426;28;20022;-70
2021/03/04 02:52:10;;;;;;;34.25;16.20;;;4.60;99.90;;;;;;5053003;28;20025;-70
2021/03/04 02:54:37;;;;;;;32.63;16.20;;;4.60;99.90;;;;;;5053297;28;20029;-70
2021/03/04 02:57:04;;;;;;;32.22;16.33;;;4.70;99.90;;;;;;5035393;28;20029;-69
2021/03/04 02:59:32;;;;;;;34.03;17.48;;;4.70;99.90;;;;;;5053139;28;20021;-69
2021/03/04 03:01:59;;;;;;;36.55;17.75;;;4.80;99.90;;;;;;5053038;28;20216;-69
2021/03/04 03:04:26;;;;;;;37.97;18.15;;;4.90;99.90;;;;;;5053094;28;20507;-70
2021/03/04 03:06:53;;;;;;;37.08;17.60;;;4.90;99.90;;;;;;5053155;28;20048;-70
2021/03/04 03:09:21;;;;;;;37.08;18.38;;;4.90;99.90;;;;;;5053132;28;20495;-70
2021/03/04 03:11:46;;;;;;;34.13;17.27;;;4.90;99.90;;;;;;5034789;28;20029;-69
2021/03/04 03:14:13;;;;;;;31.90;15.52;;;4.90;99.90;;;;;;5052923;28;20036;-69
2021/03/04 03:16:39;;;;;;;34.65;16.83;;;4.80;99.90;;;;;;5052947;28;20021;-70
2021/03/04 03:19:06;;;;;;;33.95;15.90;;;4.80;99.90;;;;;;5051932;28;20108;-69
2021/03/04 03:21:31;;;;;;;33.10;16.13;;;4.80;99.90;;;;;;5052685;28;20025;-70
2021/03/04 03:23:57;;;;;;;36.58;17.05;;;4.80;99.90;;;;;;5052664;28;20079;-70
2021/03/04 03:26:22;;;;;;;33.63;16.98;;;4.80;99.90;;;;;;5034698;28;20025;-70
2021/03/04 03:28:48;;;;;;;39.58;16.80;;;4.80;99.90;;;;;;5034756;28;20082;-70
2021/03/04 03:31:18;;;;;;;39.58;19.23;;;4.80;99.90;;;;;;5052498;28;20082;-70
2021/03/04 03:33:44;;;;;;;34.92;16.90;;;4.80;99.90;;;;;;5034707;28;20425;-68
2021/03/04 03:36:10;;;;;;;34.58;16.95;;;4.90;99.90;;;;;;5052405;28;20155;-68
2021/03/04 03:38:37;;;;;;;36.60;16.90;;;5.00;99.90;;;;;;5052532;28;20054;-67
2021/03/04 03:41:04;;;;;;;35.60;17.73;;;5.00;99.90;;;;;;5052388;28;20028;-71
2021/03/04 03:43:31;;;;;;;36.55;17.08;;;5.10;99.90;;;;;;5052112;28;20402;-69
2021/03/04 03:45:57;;;;;;;34.83;17.25;;;5.10;99.90;;;;;;5052579;28;20477;-70
2021/03/04 03:48:26;;;;;;;33.53;15.82;;;5.20;99.90;;;;;;5052275;28;20063;-69
2021/03/04 03:50:53;;;;;;;35.78;17.27;;;5.10;99.90;;;;;;5052182;28;20013;-68
2021/03/04 03:53:19;;;;;;;36.40;18.25;;;5.10;99.90;;;;;;5052009;28;20060;-68
2021/03/04 03:55:48;;;;;;;35.35;16.63;;;5.00;99.90;;;;;;5052161;28;20483;-68
2021/03/04 03:58:17;;;;;;;36.63;16.97;;;5.10;99.90;;;;;;5052126;28;20056;-71
2021/03/04 04:00:46;;;;;;;30.08;16.23;;;4.90;99.90;;;;;;5052091;28;20021;-71
2021/03/04 04:03:12;;;;;;;28.60;16.70;;;5.00;99.90;;;;;;5033782;28;20024;-71
2021/03/04 04:05:38;;;;;;;33.72;16.77;;;4.90;99.90;;;;;;5052374;28;20669;-70
2021/03/04 04:08:04;;;;;;;39.10;18.55;;;5.10;99.90;;;;;;5034156;28;20052;-70
2021/03/04 04:10:31;;;;;;;36.28;16.52;;;5.10;99.90;;;;;;5051795;28;20056;-71
2021/03/04 04:12:58;;;;;;;34.45;16.27;;;5.20;99.90;;;;;;5033610;28;20025;-71
2021/03/04 04:15:24;;;;;;;31.58;16.17;;;5.10;99.90;;;;;;5051700;28;20021;-71
2021/03/04 04:17:52;;;;;;;32.92;16.33;;;5.10;99.90;;;;;;5033806;28;20021;-71
2021/03/04 04:20:20;;;;;;;33.20;16.77;;;5.10;99.90;;;;;;5033844;28;20155;-71
2021/03/04 04:22:47;;;;;;;44.05;20.38;;;5.00;99.90;;;;;;5051299;28;20383;-71
2021/03/04 04:25:13;;;;;;;36.13;16.95;;;5.00;99.90;;;;;;5051441;28;20103;-71
2021/03/04 04:27:38;;;;;;;36.67;16.42;;;5.20;99.90;;;;;;5051427;28;20112;-71
2021/03/04 04:30:06;;;;;;;36.63;17.80;;;5.10;99.90;;;;;;5033601;28;20020;-70
2021/03/04 04:32:31;;;;;;;33.00;18.25;;;5.10;99.90;;;;;;5051535;28;20104;-71
2021/03/04 04:34:57;;;;;;;29.95;16.85;;;5.10;99.90;;;;;;5051380;28;20495;-71
2021/03/04 04:37:22;;;;;;;35.60;17.80;;;5.00;99.90;;;;;;5051461;28;20426;-71
2021/03/04 04:39:48;;;;;;;32.50;16.40;;;5.00;99.90;;;;;;5051350;28;20029;-70
2021/03/04 04:42:14;;;;;;;32.13;17.55;;;5.10;99.90;;;;;;5033260;28;20021;-71
2021/03/04 04:44:39;;;;;;;29.88;16.50;;;5.00;99.90;;;;;;5033311;28;20051;-72
2021/03/04 04:47:05;;;;;;;33.17;16.30;;;5.00;99.90;;;;;;5033295;28;20025;-71
2021/03/04 04:49:30;;;;;;;31.55;16.00;;;5.00;99.90;;;;;;5033372;28;20056;-71
2021/03/04 04:51:56;;;;;;;34.95;16.98;;;5.00;99.90;;;;;;5050809;28;20021;-71
2021/03/04 04:54:21;;;;;;;30.65;15.65;;;4.90;99.90;;;;;;5050945;28;20044;-71
2021/03/04 04:56:47;;;;;;;33.97;16.13;;;4.90;99.90;;;;;;5032714;28;20052;-70
2021/03/04 04:59:12;;;;;;;34.35;16.77;;;4.80;99.90;;;;;;5044245;28;20368;-70
2021/03/04 05:01:38;;;;;;;34.85;18.60;;;5.00;99.90;;;;;;5016118;28;20703;-71
2021/03/04 05:04:04;;;;;;;37.15;17.83;;;5.00;99.90;;;;;;5015553;28;20112;-71
2021/03/04 05:06:29;;;;;;;35.33;17.25;;;5.00;99.90;;;;;;5013257;28;20129;-70
2021/03/04 05:08:55;;;;;;;29.42;16.17;;;4.90;99.90;;;;;;5031005;28;20068;-69
2021/03/04 05:11:20;;;;;;;35.83;17.65;;;5.00;99.90;;;;;;5031099;28;20410;-71
2021/03/04 05:13:46;;;;;;;34.22;15.95;;;5.00;99.90;;;;;;5030724;28;20021;-75
2021/03/04 05:16:12;;;;;;;31.27;15.82;;;4.90;99.90;;;;;;5013240;28;20025;-70
2021/03/04 05:18:38;;;;;;;35.05;16.45;;;4.90;99.90;;;;;;5030984;28;20419;-70
2021/03/04 05:21:04;;;;;;;36.00;17.42;;;4.80;99.90;;;;;;5013463;28;20033;-68
2021/03/04 05:23:30;;;;;;;33.55;17.08;;;4.70;99.90;;;;;;5030647;28;20439;-70
2021/03/04 05:25:55;;;;;;;38.15;18.52;;;4.80;99.90;;;;;;5031008;28;20105;-70
2021/03/04 05:28:21;;;;;;;35.33;18.38;;;4.80;99.90;;;;;;5013440;28;20036;-70
2021/03/04 05:30:46;;;;;;;35.65;17.88;;;4.80;99.90;;;;;;5013471;28;20035;-70
2021/03/04 05:33:12;;;;;;;34.05;16.63;;;4.80;99.90;;;;;;5030633;28;20032;-70
2021/03/04 05:35:37;;;;;;;38.55;18.35;;;4.80;99.90;;;;;;5030882;28;20518;-69
2021/03/04 05:38:03;;;;;;;40.22;17.77;;;4.80;99.90;;;;;;5030782;28;20021;-70
2021/03/04 05:40:29;;;;;;;43.58;16.80;;;4.70;99.90;;;;;;5030738;28;20079;-70
2021/03/04 05:42:56;;;;;;;46.20;18.27;;;4.70;99.90;;;;;;5030537;28;20407;-70
2021/03/04 05:45:23;;;;;;;44.72;19.27;;;4.60;99.90;;;;;;5030614;28;20056;-70
2021/03/04 05:47:49;;;;;;;51.65;21.85;;;4.60;99.90;;;;;;5030939;28;20488;-70
2021/03/04 05:50:17;;;;;;;45.05;20.75;;;4.70;99.90;;;;;;5012984;28;20442;-69
2021/03/04 05:52:48;;;;;;;60.40;30.30;;;4.80;99.90;;;;;;5030188;28;20021;-69
2021/03/04 05:55:15;;;;;;;72.60;38.03;;;4.80;99.90;;;;;;5030616;28;20079;-69
2021/03/04 05:57:42;;;;;;;47.78;23.63;;;4.80;99.90;;;;;;5012871;28;20018;-70
2021/03/04 06:00:08;;;;;;;40.90;20.48;;;4.80;99.90;;;;;;5029640;28;20032;-69
2021/03/04 06:02:35;;;;;;;43.80;20.42;;;4.70;99.90;;;;;;5040118;28;20029;-69
2021/03/04 06:05:01;;;;;;;41.53;20.95;;;4.70;99.90;;;;;;5050155;28;20040;-71
2021/03/04 06:07:27;;;;;;;37.78;18.02;;;4.70;99.90;;;;;;5050259;28;20029;-69
2021/03/04 06:09:53;;;;;;;32.30;17.65;;;4.70;99.90;;;;;;5052558;28;20037;-69
2021/03/04 06:12:19;;;;;;;40.55;20.40;;;4.70;99.90;;;;;;5035777;28;20368;-69
2021/03/04 06:14:45;;;;;;;34.53;19.13;;;4.70;99.90;;;;;;5053638;28;20639;-70
2021/03/04 06:17:12;;;;;;;34.22;17.48;;;4.70;99.90;;;;;;5035684;28;20025;-70
2021/03/04 06:19:37;;;;;;;34.85;19.60;;;4.80;99.90;;;;;;5036164;28;20021;-69
2021/03/04 06:22:03;;;;;;;38.65;19.83;;;4.80;99.90;;;;;;5035715;28;20120;-70
2021/03/04 06:24:29;;;;;;;34.92;17.67;;;4.80;99.90;;;;;;5035891;28;20039;-70
2021/03/04 06:26:56;;;;;;;36.67;18.05;;;4.80;99.90;;;;;;5052739;28;20487;-69
2021/03/04 06:29:24;;;;;;;36.97;19.92;;;4.70;99.90;;;;;;5053791;28;20021;-70
2021/03/04 06:32:05;;;;;;;34.88;17.45;;;4.80;99.90;;;;;;5035629;28;20059;-68
2021/03/04 06:34:31;;;;;;;38.15;18.45;;;4.90;99.90;;;;;;5053701;28;20104;-70
2021/03/04 06:37:06;;;;;;;38.20;17.23;;;4.90;99.90;;;;;;5035930;28;20071;-72
2021/03/04 06:39:45;;;;;;;32.13;16.27;;;4.90;99.90;;;;;;5053538;28;20021;-72
2021/03/04 06:42:13;;;;;;;34.83;17.33;;;5.00;99.90;;;;;;5035320;28;20071;-74
2021/03/04 06:44:47;;;;;;;34.13;17.65;;;5.00;99.90;;;;;;5035584;28;20037;-71
2021/03/04 06:47:26;;;;;;;34.47;18.67;;;5.00;99.90;;;;;;5053567;28;20118;-71
2021/03/04 06:49:53;;;;;;;37.85;17.92;;;5.00;99.90;;;;;;5034462;28;20394;-68
2021/03/04 06:52:31;;;;;;;36.08;18.73;;;5.00;99.90;;;;;;5043012;28;20063;-71
2021/03/04 06:55:10;;;;;;;38.05;19.52;;;5.10;99.90;;;;;;5033308;28;20034;-69
2021/03/04 06:57:36;;;;;;;37.65;19.15;;;5.10;99.90;;;;;;5039720;28;20028;-71
2021/03/04 07:00:06;;;;;;;41.08;18.90;;;5.20;99.90;;;;;;5051878;28;20021;-70
2021/03/04 07:02:32;;;;;;;41.28;19.10;;;5.30;99.90;;;;;;5051757;28;20033;-71
2021/03/04 07:04:59;;;;;;;40.72;20.00;;;5.30;99.90;;;;;;5052968;28;20040;-71
2021/03/04 07:07:27;;;;;;;37.20;18.77;;;5.40;99.90;;;;;;5053195;28;20025;-74
2021/03/04 07:09:54;;;;;;;37.10;19.10;;;5.70;99.90;;;;;;5035227;28;20021;-74
2021/03/04 07:12:22;;;;;;;40.30;19.08;;;5.90;99.90;;;;;;5047236;28;20566;-72
2021/03/04 07:14:49;;;;;;;34.65;20.60;;;6.00;99.90;;;;;;5027868;28;20138;-70
2021/03/04 07:17:16;;;;;;;65.13;30.80;;;6.10;99.90;;;;;;5044437;28;20032;-71
2021/03/04 07:19:49;;;;;;;69.45;31.88;;;6.10;99.90;;;;;;5052361;28;20484;-71
2021/03/04 07:22:14;;;;;;;50.17;26.10;;;6.20;99.90;;;;;;5054068;28;20498;-71
2021/03/04 07:24:41;;;;;;;48.58;25.45;;;6.40;99.90;;;;;;5072798;28;20032;-71
2021/03/04 07:27:08;;;;;;;47.35;23.70;;;6.40;99.90;;;;;;5072797;28;20017;-71
2021/03/04 07:29:34;;;;;;;42.83;23.33;;;6.40;99.90;;;;;;5054837;28;20482;-71
2021/03/04 07:32:06;;;;;;;49.88;29.30;;;6.30;99.90;;;;;;5054510;28;20031;-69
2021/03/04 07:34:34;;;;;;;52.95;30.50;;;6.40;99.90;;;;;;5072786;28;20021;-71
2021/03/04 07:37:01;;;;;;;49.95;23.45;;;6.50;99.90;;;;;;5047405;28;20108;-71
2021/03/04 07:39:29;;;;;;;43.78;23.67;;;6.70;99.90;;;;;;5052861;28;20059;-71
2021/03/04 07:41:54;;;;;;;43.13;23.13;;;6.90;99.90;;;;;;5034442;28;20529;-70
2021/03/04 07:44:26;;;;;;;38.10;22.85;;;7.00;99.90;;;;;;5052415;28;20029;-71
2021/03/04 07:46:56;;;;;;;40.53;22.17;;;7.00;99.90;;;;;;5051929;28;20096;-71
2021/03/04 07:49:36;;;;;;;46.72;23.67;;;7.10;99.90;;;;;;5034850;28;20025;-71
2021/03/04 07:52:12;;;;;;;41.30;20.95;;;7.20;99.90;;;;;;5052091;28;20505;-71
2021/03/04 07:54:39;;;;;;;40.75;21.67;;;7.40;99.90;;;;;;5052217;28;20031;-72
2021/03/04 07:57:16;;;;;;;38.97;20.73;;;7.50;99.90;;;;;;5052305;28;20021;-72
2021/03/04 07:59:55;;;;;;;42.13;20.65;;;7.60;99.90;;;;;;5034252;28;20021;-72
2021/03/04 08:02:32;;;;;;;39.58;21.05;;;7.60;99.90;;;;;;5051746;28;20090;-71
2021/03/04 08:05:16;;;;;;;42.35;22.70;;;7.60;99.90;;;;;;5033744;28;20041;-71
2021/03/04 08:07:46;;;;;;;38.50;22.08;;;7.70;99.90;;;;;;5051980;28;20032;-73
2021/03/04 08:10:14;;;;;;;38.47;21.27;;;7.70;99.90;;;;;;5052092;28;20406;-75
2021/03/04 08:12:54;;;;;;;43.22;20.90;;;7.80;99.90;;;;;;5051908;28;20052;-75
2021/03/04 08:15:21;;;;;;;38.70;20.53;;;7.90;99.90;;;;;;5051774;28;20025;-74
2021/03/04 08:17:47;;;;;;;43.60;21.15;;;7.80;99.90;;;;;;5033966;28;20036;-74
2021/03/04 08:20:18;;;;;;;39.75;21.98;;;7.80;99.90;;;;;;5033826;28;20021;-73
2021/03/04 08:22:47;;;;;;;40.47;22.10;;;7.80;99.90;;;;;;5051527;28;20021;-74
2021/03/04 08:25:19;;;;;;;41.40;21.57;;;7.90;99.90;;;;;;5033901;28;20507;-73
2021/03/04 08:27:45;;;;;;;42.47;21.77;;;7.90;99.90;;;;;;5033751;28;20021;-74
2021/03/04 08:30:12;;;;;;;37.25;21.60;;;8.10;99.90;;;;;;5033688;28;20028;-72
2021/03/04 08:32:39;;;;;;;41.60;21.80;;;8.20;99.90;;;;;;5050419;28;20087;-71
2021/03/04 08:35:21;;;;;;;43.92;20.88;;;8.20;99.90;;;;;;5051352;28;20028;-72
2021/03/04 08:37:53;;;;;;;44.55;22.50;;;8.40;99.90;;;;;;5033633;28;20079;-73
2021/03/04 08:40:19;;;;;;;41.72;22.92;;;8.40;99.90;;;;;;5051384;28;20033;-73
2021/03/04 08:42:44;;;;;;;43.03;22.30;;;8.50;99.90;;;;;;5033209;28;20029;-72
2021/03/04 08:45:10;;;;;;;38.45;22.05;;;8.60;99.90;;;;;;5050930;28;20025;-72
2021/03/04 08:47:39;;;;;;;44.38;22.90;;;8.60;99.90;;;;;;5051114;28;20104;-72
2021/03/04 08:50:05;;;;;;;41.13;22.83;;;8.80;99.90;;;;;;5051206;28;20032;-72
2021/03/04 08:52:32;;;;;;;41.63;22.63;;;8.80;99.90;;;;;;5032837;28;20544;-73
2021/03/04 08:55:00;;;;;;;40.15;22.80;;;8.80;99.90;;;;;;5033106;28;20021;-73
2021/03/04 08:57:27;;;;;;;46.53;22.55;;;8.90;99.90;;;;;;5051316;28;20043;-73
2021/03/04 09:00:06;;;;;;;42.55;23.20;;;9.10;99.90;;;;;;5051175;28;20028;-73
2021/03/04 09:02:32;;;;;;;40.85;21.08;;;9.40;99.90;;;;;;5032594;28;20025;-72
2021/03/04 09:04:57;;;;;;;43.80;23.27;;;9.60;99.90;;;;;;5050775;28;20522;-73
2021/03/04 09:07:39;;;;;;;42.75;21.95;;;9.60;99.90;;;;;;5050835;28;20509;-72
2021/03/04 09:10:06;;;;;;;39.67;23.23;;;9.60;99.90;;;;;;5033056;28;20491;-72
2021/03/04 09:12:45;;;;;;;41.53;22.27;;;9.60;99.90;;;;;;5032600;28;20044;-72
2021/03/04 09:15:13;;;;;;;40.67;22.75;;;9.70;99.90;;;;;;5032947;28;20032;-72
2021/03/04 09:17:40;;;;;;;42.75;24.50;;;9.90;99.90;;;;;;5050694;28;20025;-70
2021/03/04 09:20:07;;;;;;;42.08;22.33;;;10.10;99.90;;;;;;5050785;28;20027;-71
2021/03/04 09:22:35;;;;;;;46.53;25.05;;;10.20;99.90;;;;;;5050566;28;20032;-71
2021/03/04 09:25:01;;;;;;;46.15;23.92;;;10.40;99.40;;;;;;5050873;28;20021;-71
2021/03/04 09:27:27;;;;;;;41.83;23.63;;;10.70;99.90;;;;;;5050641;28;20021;-72
2021/03/04 09:29:53;;;;;;;47.58;24.95;;;10.90;99.40;;;;;;5032764;28;20503;-73
2021/03/04 09:32:30;;;;;;;48.85;25.23;;;11.10;99.00;;;;;;5050137;28;20130;-72
2021/03/04 09:34:55;;;;;;;42.42;25.10;;;11.40;98.50;;;;;;5050873;28;20043;-73
2021/03/04 09:37:30;;;;;;;52.90;26.88;;;11.50;98.30;;;;;;5032705;28;20487;-72
2021/03/04 09:39:56;;;;;;;51.92;26.83;;;11.60;97.90;;;;;;5032662;28;20021;-72
2021/03/04 09:42:42;;;;;;;52.00;28.23;;;11.80;98.20;;;;;;5050719;28;20490;-72
2021/03/04 09:45:09;;;;;;;53.80;26.63;;;11.80;97.50;;;;;;5054309;28;20080;-72
2021/03/04 09:47:36;;;;;;;53.45;27.23;;;12.00;97.60;;;;;;5054538;28;20032;-71
2021/03/04 09:50:14;;;;;;;45.28;26.00;;;12.20;96.50;;;;;;5036698;28;20036;-72
2021/03/04 09:52:40;;;;;;;52.58;26.05;;;12.30;97.60;;;;;;5054732;28;20021;-72
2021/03/04 09:55:19;;;;;;;54.63;28.60;;;12.50;97.40;;;;;;5054380;28;20028;-72
2021/03/04 09:57:46;;;;;;;46.58;26.08;;;12.80;97.10;;;;;;5054520;28;20047;-73
2021/03/04 10:00:18;;;;;;;47.42;28.35;;;12.80;96.00;;;;;;5054376;28;20090;-72
2021/03/04 10:02:52;;;;;;;52.22;28.27;;;12.80;95.60;;;;;;5036251;28;20115;-72
2021/03/04 10:05:27;;;;;;;54.88;28.38;;;12.80;95.90;;;;;;5036732;28;20413;-71
2021/03/04 10:08:02;;;;;;;57.10;31.00;;;13.00;96.00;;;;;;5054216;28;20025;-72
2021/03/04 10:10:30;;;;;;;60.00;30.10;;;13.20;95.30;;;;;;5054282;28;20028;-72
2021/03/04 10:12:59;;;;;;;66.25;35.55;;;13.50;95.10;;;;;;5035929;28;20037;-71
2021/03/04 10:15:35;;;;;;;68.47;36.15;;;13.70;93.50;;;;;;5036085;28;20079;-72
2021/03/04 10:18:05;;;;;;;77.72;40.88;;;13.90;92.30;;;;;;5054175;28;20023;-72
2021/03/04 10:20:30;;;;;;;80.57;40.05;;;13.80;91.30;;;;;;5054321;28;20040;-72
2021/03/04 10:22:56;;;;;;;73.38;39.05;;;13.70;91.40;;;;;;5053800;28;20029;-72
2021/03/04 10:25:23;;;;;;;73.85;39.28;;;13.40;91.20;;;;;;5053796;28;20029;-72
2021/03/04 10:27:49;;;;;;;76.43;40.50;;;13.20;92.00;;;;;;5053856;28;20033;-72
2021/03/04 10:30:16;;;;;;;77.55;38.28;;;12.90;92.30;;;;;;5053824;28;20017;-72
2021/03/04 10:32:42;;;;;;;80.40;39.28;;;13.00;93.00;;;;;;5053526;28;20060;-72
2021/03/04 10:35:13;;;;;;;67.43;37.33;;;12.90;92.70;;;;;;5053859;28;20017;-73
2021/03/04 10:37:40;;;;;;;78.50;39.40;;;12.80;92.60;;;;;;5036128;28;20029;-72
2021/03/04 10:40:08;;;;;;;83.22;39.80;;;12.70;93.10;;;;;;5053986;28;20025;-72
2021/03/04 10:42:33;;;;;;;87.70;46.58;;;12.70;93.50;;;;;;5035425;28;20399;-72
2021/03/04 10:44:59;;;;;;;117.82;57.50;;;12.70;92.80;;;;;;5053377;28;20033;-71
2021/03/04 10:47:28;;;;;;;89.82;46.47;;;12.60;93.20;;;;;;5053391;28;20021;-72
2021/03/04 10:49:55;;;;;;;83.03;42.67;;;12.30;93.60;;;;;;5035665;28;20098;-72
2021/03/04 10:52:22;;;;;;;74.07;39.00;;;12.30;94.20;;;;;;5053010;28;20025;-71
2021/03/04 10:54:48;;;;;;;76.53;37.42;;;12.20;94.30;;;;;;5034546;28;20025;-72
2021/03/04 10:57:13;;;;;;;76.30;38.97;;;12.30;94.00;;;;;;5053396;28;20028;-71
2021/03/04 10:59:39;;;;;;;81.85;39.90;;;12.20;95.00;;;;;;5035577;28;20075;-71
2021/03/04 11:02:04;;;;;;;85.40;41.67;;;12.10;94.60;;;;;;5035005;28;20479;-71
2021/03/04 11:04:30;;;;;;;76.95;38.58;;;12.00;95.40;;;;;;5035168;28;20316;-71
2021/03/04 11:06:55;;;;;;;75.68;40.65;;;11.90;95.30;;;;;;5053254;28;20104;-71
2021/03/04 11:09:21;;;;;;;79.95;39.90;;;11.90;95.80;;;;;;5053233;28;20021;-74
2021/03/04 11:11:47;;;;;;;71.10;37.00;;;11.90;96.30;;;;;;5052825;28;20078;-72
2021/03/04 11:14:12;;;;;;;68.82;36.63;;;11.80;96.40;;;;;;5052935;28;20483;-73
2021/03/04 11:16:38;;;;;;;68.40;36.33;;;11.80;96.70;;;;;;5035238;28;20356;-71
2021/03/04 11:19:04;;;;;;;74.20;37.33;;;11.80;97.40;;;;;;5035027;28;20017;-72
2021/03/04 11:21:30;;;;;;;66.32;32.22;;;11.80;97.30;;;;;;5052757;28;20044;-72
2021/03/04 11:23:56;;;;;;;48.50;26.35;;;11.70;97.30;;;;;;5034537;28;20021;-72
2021/03/04 11:26:21;;;;;;;65.38;34.65;;;11.70;97.60;;;;;;5052962;28;20067;-71
2021/03/04 11:28:47;;;;;;;68.63;41.20;;;11.50;98.20;;;;;;5034816;28;20025;-73
2021/03/04 11:31:13;;;;;;;52.33;26.25;;;11.40;98.80;;;;;;5052991;28;20021;-72
2021/03/04 11:33:38;;;;;;;45.75;22.92;;;11.30;99.80;;;;;;5052244;28;20025;-71
2021/03/04 11:36:04;;;;;;;48.78;23.35;;;11.30;99.90;;;;;;5052571;28;20025;-71
2021/03/04 11:38:29;;;;;;;43.83;19.70;;;11.10;99.90;;;;;;5034568;28;20520;-70
2021/03/04 11:40:55;;;;;;;43.78;20.88;;;11.00;99.90;;;;;;5034590;28;20040;-71
2021/03/04 11:43:21;;;;;;;41.35;21.40;;;10.90;99.90;;;;;;5052065;28;20025;-70
2021/03/04 11:45:46;;;;;;;39.95;19.23;;;11.00;99.90;;;;;;5034380;28;20025;-72
2021/03/04 11:48:12;;;;;;;35.90;17.48;;;11.20;99.90;;;;;;5034443;28;20021;-71
2021/03/04 11:50:37;;;;;;;41.35;20.10;;;11.40;99.90;;;;;;5052218;28;20033;-72
2021/03/04 11:53:05;;;;;;;43.60;22.30;;;11.50;99.90;;;;;;5051817;28;20036;-71
2021/03/04 11:55:32;;;;;;;42.63;21.05;;;11.60;99.90;;;;;;5034293;28;20025;-70
2021/03/04 11:57:57;;;;;;;41.75;21.23;;;11.70;99.90;;;;;;5052214;28;20017;-72
2021/03/04 12:00:23;;;;;;;40.30;21.25;;;11.70;99.90;;;;;;5052037;28;20382;-71
2021/03/04 12:02:49;;;;;;;41.90;20.92;;;11.70;99.90;;;;;;5051850;28;20029;-72
2021/03/04 12:05:15;;;;;;;38.50;22.17;;;11.70;99.90;;;;;;5051990;28;20041;-71
2021/03/04 12:07:40;;;;;;;44.78;21.40;;;11.80;99.90;;;;;;5051967;28;20033;-71
2021/03/04 12:10:06;;;;;;;43.38;20.73;;;11.70;99.90;;;;;;5051972;28;20104;-71
2021/03/04 12:12:32;;;;;;;42.85;22.35;;;11.80;99.90;;;;;;5051638;28;20021;-70
2021/03/04 12:14:59;;;;;;;40.47;21.63;;;11.80;99.90;;;;;;5033931;28;20021;-72
2021/03/04 12:17:24;;;;;;;42.50;23.52;;;11.80;99.90;;;;;;5033939;28;20021;-72
2021/03/04 12:19:50;;;;;;;44.05;22.30;;;11.90;99.90;;;;;;5045080;28;20696;-72
2021/03/04 12:22:15;;;;;;;44.78;22.75;;;12.00;99.90;;;;;;5039272;28;20631;-72
2021/03/04 12:24:41;;;;;;;31.90;17.60;;;12.10;99.90;;;;;;5022244;28;20031;-72
2021/03/04 12:27:07;;;;;;;39.70;17.58;;;12.00;99.90;;;;;;5039424;28;20028;-71
2021/03/04 12:29:32;;;;;;;33.88;16.67;;;12.10;99.90;;;;;;5021517;28;20114;-72
2021/03/04 12:31:58;;;;;;;32.72;15.60;;;12.00;99.90;;;;;;5031370;28;20073;-71
2021/03/04 12:34:23;;;;;;;38.05;21.23;;;11.90;99.90;;;;;;5013865;28;20028;-71
2021/03/04 12:36:49;;;;;;;31.42;16.27;;;11.90;99.90;;;;;;5031593;28;20468;-71